Weather at Felts Field

Public forecast

Using degrees Fahrenheit for public forecast. Weather courtesy of forecast.io.

Current aviation weather report (METAR) for Felts Field

Retrieved 2021/06/12 18:53 UTC (19 minutes ago):

KSFF 121853Z 01003KT 10SM FEW038 SCT065 BKN080 20/10 A3009 RMK AO2 SLP183 T02000100

Aviation forecast (TAF) for Felts Field

Retrieved 2021/06/12 18:40 UTC (32 minutes ago):

TAF KSFF 121738Z 1218/1318 VRB04KT P6SM BKN050 BKN200 FM130000 VRB03KT P6SM BKN250